sensor_id;sensor_type;location;lat;lon;timestamp;P1;durP1;ratioP1;P2;durP2;ratioP2
55220;SDS011;41089;51.448;6.604;2023-07-08T00:03:35;7.07;;;3.07;;
55220;SDS011;41089;51.448;6.604;2023-07-08T00:09:39;6.55;;;3.35;;
55220;SDS011;41089;51.448;6.604;2023-07-08T00:15:42;6.80;;;3.50;;
55220;SDS011;41089;51.448;6.604;2023-07-08T00:27:49;6.10;;;3.22;;
55220;SDS011;41089;51.448;6.604;2023-07-08T00:33:49;5.45;;;3.85;;
55220;SDS011;41089;51.448;6.604;2023-07-08T00:39:50;4.97;;;3.20;;
55220;SDS011;41089;51.448;6.604;2023-07-08T00:58:19;6.03;;;3.75;;
55220;SDS011;41089;51.448;6.604;2023-07-08T01:04:25;6.88;;;3.78;;
55220;SDS011;41089;51.448;6.604;2023-07-08T01:10:33;7.50;;;3.63;;
55220;SDS011;41089;51.448;6.604;2023-07-08T01:16:39;6.10;;;3.03;;
55220;SDS011;41089;51.448;6.604;2023-07-08T01:22:40;5.15;;;3.45;;
55220;SDS011;41089;51.448;6.604;2023-07-08T01:28:41;5.82;;;3.60;;
55220;SDS011;41089;51.448;6.604;2023-07-08T01:34:43;6.85;;;3.70;;
55220;SDS011;41089;51.448;6.604;2023-07-08T01:41:04;4.55;;;3.05;;
55220;SDS011;41089;51.448;6.604;2023-07-08T01:47:19;7.78;;;3.67;;
55220;SDS011;41089;51.448;6.604;2023-07-08T01:53:39;8.50;;;3.53;;
55220;SDS011;41089;51.448;6.604;2023-07-08T01:59:55;8.35;;;3.28;;
55220;SDS011;41089;51.448;6.604;2023-07-08T02:05:55;7.82;;;4.00;;
55220;SDS011;41089;51.448;6.604;2023-07-08T02:11:56;5.23;;;3.87;;
55220;SDS011;41089;51.448;6.604;2023-07-08T02:17:56;5.70;;;3.50;;
55220;SDS011;41089;51.448;6.604;2023-07-08T02:23:57;6.15;;;3.60;;
55220;SDS011;41089;51.448;6.604;2023-07-08T02:29:57;7.15;;;3.90;;
55220;SDS011;41089;51.448;6.604;2023-07-08T02:35:58;6.60;;;3.47;;
55220;SDS011;41089;51.448;6.604;2023-07-08T02:42:00;6.63;;;3.35;;
55220;SDS011;41089;51.448;6.604;2023-07-08T02:48:01;4.15;;;3.42;;
55220;SDS011;41089;51.448;6.604;2023-07-08T02:54:01;5.70;;;3.30;;
55220;SDS011;41089;51.448;6.604;2023-07-08T03:00:02;6.70;;;3.50;;
55220;SDS011;41089;51.448;6.604;2023-07-08T03:06:04;5.07;;;3.30;;
55220;SDS011;41089;51.448;6.604;2023-07-08T03:12:08;5.47;;;3.90;;
55220;SDS011;41089;51.448;6.604;2023-07-08T03:18:10;5.65;;;3.60;;
55220;SDS011;41089;51.448;6.604;2023-07-08T03:24:11;4.85;;;3.25;;
55220;SDS011;41089;51.448;6.604;2023-07-08T03:30:12;7.13;;;3.50;;
55220;SDS011;41089;51.448;6.604;2023-07-08T03:36:16;6.63;;;3.67;;
55220;SDS011;41089;51.448;6.604;2023-07-08T03:42:23;7.15;;;3.55;;
55220;SDS011;41089;51.448;6.604;2023-07-08T03:48:23;7.85;;;3.40;;
55220;SDS011;41089;51.448;6.604;2023-07-08T03:54:28;5.57;;;3.88;;
55220;SDS011;41089;51.448;6.604;2023-07-08T04:00:30;8.10;;;4.30;;
55220;SDS011;41089;51.448;6.604;2023-07-08T04:06:37;6.40;;;4.22;;
55220;SDS011;41089;51.448;6.604;2023-07-08T04:12:37;4.80;;;3.90;;
55220;SDS011;41089;51.448;6.604;2023-07-08T04:18:38;8.68;;;3.63;;
55220;SDS011;41089;51.448;6.604;2023-07-08T04:24:38;6.50;;;3.25;;
55220;SDS011;41089;51.448;6.604;2023-07-08T04:30:45;3.93;;;3.43;;
55220;SDS011;41089;51.448;6.604;2023-07-08T04:37:04;6.22;;;3.10;;
55220;SDS011;41089;51.448;6.604;2023-07-08T04:43:06;4.90;;;3.57;;
55220;SDS011;41089;51.448;6.604;2023-07-08T04:49:07;6.18;;;4.03;;
55220;SDS011;41089;51.448;6.604;2023-07-08T04:55:09;4.45;;;3.65;;
55220;SDS011;41089;51.448;6.604;2023-07-08T05:01:10;4.93;;;3.20;;
55220;SDS011;41089;51.448;6.604;2023-07-08T05:07:21;5.33;;;3.83;;
55220;SDS011;41089;51.448;6.604;2023-07-08T05:13:21;7.80;;;4.03;;
55220;SDS011;41089;51.448;6.604;2023-07-08T05:19:24;7.27;;;3.90;;
55220;SDS011;41089;51.448;6.604;2023-07-08T05:25:31;7.70;;;4.30;;
55220;SDS011;41089;51.448;6.604;2023-07-08T05:31:33;7.05;;;4.03;;
55220;SDS011;41089;51.448;6.604;2023-07-08T05:37:33;6.90;;;3.83;;
55220;SDS011;41089;51.448;6.604;2023-07-08T05:43:34;8.13;;;3.90;;
55220;SDS011;41089;51.448;6.604;2023-07-08T05:49:35;8.23;;;4.13;;
55220;SDS011;41089;51.448;6.604;2023-07-08T05:55:36;6.85;;;3.55;;
55220;SDS011;41089;51.448;6.604;2023-07-08T06:01:36;5.40;;;4.00;;
55220;SDS011;41089;51.448;6.604;2023-07-08T06:07:38;8.75;;;4.07;;
55220;SDS011;41089;51.448;6.604;2023-07-08T06:19:43;9.77;;;4.43;;
55220;SDS011;41089;51.448;6.604;2023-07-08T06:25:44;8.25;;;4.82;;
55220;SDS011;41089;51.448;6.604;2023-07-08T06:31:44;8.27;;;4.90;;
55220;SDS011;41089;51.448;6.604;2023-07-08T06:37:47;8.70;;;5.27;;
55220;SDS011;41089;51.448;6.604;2023-07-08T06:43:47;10.68;;;5.32;;
55220;SDS011;41089;51.448;6.604;2023-07-08T06:49:48;7.68;;;4.70;;
55220;SDS011;41089;51.448;6.604;2023-07-08T06:55:52;8.80;;;5.65;;
55220;SDS011;41089;51.448;6.604;2023-07-08T07:01:53;8.43;;;4.80;;
55220;SDS011;41089;51.448;6.604;2023-07-08T07:07:54;6.13;;;5.20;;
55220;SDS011;41089;51.448;6.604;2023-07-08T07:13:54;6.87;;;5.10;;
55220;SDS011;41089;51.448;6.604;2023-07-08T07:19:54;6.97;;;5.05;;
55220;SDS011;41089;51.448;6.604;2023-07-08T07:25:55;8.10;;;4.95;;
55220;SDS011;41089;51.448;6.604;2023-07-08T07:31:55;8.05;;;5.35;;
55220;SDS011;41089;51.448;6.604;2023-07-08T07:37:56;7.05;;;5.10;;
55220;SDS011;41089;51.448;6.604;2023-07-08T07:43:57;7.07;;;5.32;;
55220;SDS011;41089;51.448;6.604;2023-07-08T07:49:58;7.55;;;5.63;;
55220;SDS011;41089;51.448;6.604;2023-07-08T07:55:59;6.97;;;5.60;;
55220;SDS011;41089;51.448;6.604;2023-07-08T08:02:01;11.35;;;7.28;;
55220;SDS011;41089;51.448;6.604;2023-07-08T08:08:02;7.90;;;6.20;;
55220;SDS011;41089;51.448;6.604;2023-07-08T08:14:13;10.02;;;6.80;;
55220;SDS011;41089;51.448;6.604;2023-07-08T08:20:22;9.90;;;6.43;;
55220;SDS011;41089;51.448;6.604;2023-07-08T08:26:24;12.38;;;8.30;;
55220;SDS011;41089;51.448;6.604;2023-07-08T08:32:24;7.73;;;6.93;;
55220;SDS011;41089;51.448;6.604;2023-07-08T08:38:25;9.23;;;6.37;;
55220;SDS011;41089;51.448;6.604;2023-07-08T08:44:35;8.77;;;7.70;;
55220;SDS011;41089;51.448;6.604;2023-07-08T08:50:50;12.45;;;7.47;;
55220;SDS011;41089;51.448;6.604;2023-07-08T08:57:02;8.63;;;6.18;;
55220;SDS011;41089;51.448;6.604;2023-07-08T09:03:16;8.38;;;6.03;;
55220;SDS011;41089;51.448;6.604;2023-07-08T09:09:18;8.25;;;6.65;;
55220;SDS011;41089;51.448;6.604;2023-07-08T09:15:25;6.50;;;5.90;;
55220;SDS011;41089;51.448;6.604;2023-07-08T09:21:27;9.35;;;6.60;;
55220;SDS011;41089;51.448;6.604;2023-07-08T09:27:37;7.35;;;6.65;;
55220;SDS011;41089;51.448;6.604;2023-07-08T09:33:38;8.80;;;7.05;;
55220;SDS011;41089;51.448;6.604;2023-07-08T09:39:38;8.32;;;6.25;;
55220;SDS011;41089;51.448;6.604;2023-07-08T09:45:44;8.57;;;6.37;;
55220;SDS011;41089;51.448;6.604;2023-07-08T09:51:46;7.63;;;6.75;;
55220;SDS011;41089;51.448;6.604;2023-07-08T09:57:47;9.43;;;6.45;;
55220;SDS011;41089;51.448;6.604;2023-07-08T10:03:49;9.15;;;6.05;;
55220;SDS011;41089;51.448;6.604;2023-07-08T10:09:50;8.75;;;6.13;;
55220;SDS011;41089;51.448;6.604;2023-07-08T10:16:09;9.50;;;5.72;;
55220;SDS011;41089;51.448;6.604;2023-07-08T10:28:21;6.30;;;5.20;;
55220;SDS011;41089;51.448;6.604;2023-07-08T10:40:54;5.88;;;4.80;;
55220;SDS011;41089;51.448;6.604;2023-07-08T10:53:50;7.30;;;5.07;;
55220;SDS011;41089;51.448;6.604;2023-07-08T11:00:07;7.20;;;5.20;;
55220;SDS011;41089;51.448;6.604;2023-07-08T11:06:24;5.43;;;4.78;;
55220;SDS011;41089;51.448;6.604;2023-07-08T11:19:04;6.75;;;5.88;;
55220;SDS011;41089;51.448;6.604;2023-07-08T11:25:08;7.47;;;5.47;;
55220;SDS011;41089;51.448;6.604;2023-07-08T11:31:17;9.07;;;5.47;;
55220;SDS011;41089;51.448;6.604;2023-07-08T11:37:18;6.18;;;5.05;;
55220;SDS011;41089;51.448;6.604;2023-07-08T11:43:21;6.65;;;5.47;;
55220;SDS011;41089;51.448;6.604;2023-07-08T11:49:23;9.75;;;5.60;;
55220;SDS011;41089;51.448;6.604;2023-07-08T11:55:35;8.83;;;5.70;;
55220;SDS011;41089;51.448;6.604;2023-07-08T12:07:55;8.77;;;5.25;;
55220;SDS011;41089;51.448;6.604;2023-07-08T12:14:02;8.13;;;5.40;;
55220;SDS011;41089;51.448;6.604;2023-07-08T12:20:04;5.78;;;5.20;;
55220;SDS011;41089;51.448;6.604;2023-07-08T12:26:08;7.13;;;5.22;;
55220;SDS011;41089;51.448;6.604;2023-07-08T12:32:10;8.95;;;5.38;;
55220;SDS011;41089;51.448;6.604;2023-07-08T12:38:23;5.78;;;5.25;;
55220;SDS011;41089;51.448;6.604;2023-07-08T12:44:27;7.93;;;5.45;;
55220;SDS011;41089;51.448;6.604;2023-07-08T12:50:28;7.67;;;5.40;;
55220;SDS011;41089;51.448;6.604;2023-07-08T12:56:28;6.33;;;5.50;;
55220;SDS011;41089;51.448;6.604;2023-07-08T13:02:29;9.00;;;5.85;;
55220;SDS011;41089;51.448;6.604;2023-07-08T13:08:33;7.47;;;5.03;;
55220;SDS011;41089;51.448;6.604;2023-07-08T13:14:36;10.45;;;5.20;;
55220;SDS011;41089;51.448;6.604;2023-07-08T13:20:43;7.55;;;4.72;;
55220;SDS011;41089;51.448;6.604;2023-07-08T13:26:48;7.18;;;5.43;;
55220;SDS011;41089;51.448;6.604;2023-07-08T13:32:55;6.30;;;5.20;;
55220;SDS011;41089;51.448;6.604;2023-07-08T13:39:00;7.65;;;5.40;;
55220;SDS011;41089;51.448;6.604;2023-07-08T13:45:03;7.95;;;5.28;;
55220;SDS011;41089;51.448;6.604;2023-07-08T13:57:10;7.32;;;5.50;;
55220;SDS011;41089;51.448;6.604;2023-07-08T14:03:12;10.50;;;5.35;;
55220;SDS011;41089;51.448;6.604;2023-07-08T14:09:18;9.35;;;6.10;;
55220;SDS011;41089;51.448;6.604;2023-07-08T14:15:20;7.05;;;5.13;;
55220;SDS011;41089;51.448;6.604;2023-07-08T14:21:20;6.10;;;5.00;;
55220;SDS011;41089;51.448;6.604;2023-07-08T14:27:21;6.67;;;5.53;;
55220;SDS011;41089;51.448;6.604;2023-07-08T14:33:21;9.23;;;5.40;;
55220;SDS011;41089;51.448;6.604;2023-07-08T14:39:22;6.60;;;4.95;;
55220;SDS011;41089;51.448;6.604;2023-07-08T14:45:22;6.13;;;4.93;;
55220;SDS011;41089;51.448;6.604;2023-07-08T14:51:24;8.37;;;4.87;;
55220;SDS011;41089;51.448;6.604;2023-07-08T14:57:25;7.80;;;5.22;;
55220;SDS011;41089;51.448;6.604;2023-07-08T15:03:29;7.60;;;5.35;;
55220;SDS011;41089;51.448;6.604;2023-07-08T15:09:29;8.80;;;5.20;;
55220;SDS011;41089;51.448;6.604;2023-07-08T15:15:31;6.53;;;5.03;;
55220;SDS011;41089;51.448;6.604;2023-07-08T15:21:33;6.85;;;5.35;;
55220;SDS011;41089;51.448;6.604;2023-07-08T15:27:33;5.97;;;4.97;;
55220;SDS011;41089;51.448;6.604;2023-07-08T15:33:34;6.50;;;4.80;;
55220;SDS011;41089;51.448;6.604;2023-07-08T15:39:34;7.17;;;5.30;;
55220;SDS011;41089;51.448;6.604;2023-07-08T15:45:35;8.00;;;5.20;;
55220;SDS011;41089;51.448;6.604;2023-07-08T15:51:37;8.10;;;4.85;;
55220;SDS011;41089;51.448;6.604;2023-07-08T15:57:47;6.70;;;5.67;;
55220;SDS011;41089;51.448;6.604;2023-07-08T16:03:49;9.48;;;5.32;;
55220;SDS011;41089;51.448;6.604;2023-07-08T16:09:50;8.65;;;5.68;;
55220;SDS011;41089;51.448;6.604;2023-07-08T16:15:51;7.20;;;5.50;;
55220;SDS011;41089;51.448;6.604;2023-07-08T16:21:53;6.38;;;5.60;;
55220;SDS011;41089;51.448;6.604;2023-07-08T16:27:53;9.95;;;6.55;;
55220;SDS011;41089;51.448;6.604;2023-07-08T16:33:54;7.03;;;5.37;;
55220;SDS011;41089;51.448;6.604;2023-07-08T16:39:58;9.18;;;5.60;;
55220;SDS011;41089;51.448;6.604;2023-07-08T16:45:59;10.13;;;5.28;;
55220;SDS011;41089;51.448;6.604;2023-07-08T16:51:59;7.13;;;5.25;;
55220;SDS011;41089;51.448;6.604;2023-07-08T16:58:01;10.10;;;5.53;;
55220;SDS011;41089;51.448;6.604;2023-07-08T17:04:02;8.93;;;5.75;;
55220;SDS011;41089;51.448;6.604;2023-07-08T17:10:03;7.43;;;5.35;;
55220;SDS011;41089;51.448;6.604;2023-07-08T17:16:03;7.40;;;5.28;;
55220;SDS011;41089;51.448;6.604;2023-07-08T17:22:04;11.30;;;5.90;;
55220;SDS011;41089;51.448;6.604;2023-07-08T17:28:04;8.60;;;5.80;;
55220;SDS011;41089;51.448;6.604;2023-07-08T17:34:05;8.32;;;5.43;;
55220;SDS011;41089;51.448;6.604;2023-07-08T17:40:22;8.87;;;5.37;;
55220;SDS011;41089;51.448;6.604;2023-07-08T17:46:25;8.88;;;5.88;;
55220;SDS011;41089;51.448;6.604;2023-07-08T17:52:26;6.38;;;5.07;;
55220;SDS011;41089;51.448;6.604;2023-07-08T17:58:28;7.45;;;5.45;;
55220;SDS011;41089;51.448;6.604;2023-07-08T18:04:33;8.90;;;5.40;;
55220;SDS011;41089;51.448;6.604;2023-07-08T18:10:34;8.15;;;6.10;;
55220;SDS011;41089;51.448;6.604;2023-07-08T18:16:35;6.82;;;5.45;;
55220;SDS011;41089;51.448;6.604;2023-07-08T18:22:35;8.17;;;5.87;;
55220;SDS011;41089;51.448;6.604;2023-07-08T18:28:35;11.90;;;5.80;;
55220;SDS011;41089;51.448;6.604;2023-07-08T18:34:36;7.73;;;5.47;;
55220;SDS011;41089;51.448;6.604;2023-07-08T18:40:37;11.47;;;5.93;;
55220;SDS011;41089;51.448;6.604;2023-07-08T18:46:41;7.88;;;5.68;;
55220;SDS011;41089;51.448;6.604;2023-07-08T18:52:41;7.90;;;5.65;;
55220;SDS011;41089;51.448;6.604;2023-07-08T18:58:42;7.45;;;5.40;;
55220;SDS011;41089;51.448;6.604;2023-07-08T19:04:44;6.65;;;5.55;;
55220;SDS011;41089;51.448;6.604;2023-07-08T19:10:44;10.57;;;5.90;;
55220;SDS011;41089;51.448;6.604;2023-07-08T19:16:45;10.10;;;5.65;;
55220;SDS011;41089;51.448;6.604;2023-07-08T19:22:46;11.82;;;5.43;;
55220;SDS011;41089;51.448;6.604;2023-07-08T19:28:49;11.60;;;6.10;;
55220;SDS011;41089;51.448;6.604;2023-07-08T19:34:49;7.88;;;5.65;;
55220;SDS011;41089;51.448;6.604;2023-07-08T19:40:50;7.23;;;5.30;;
55220;SDS011;41089;51.448;6.604;2023-07-08T19:46:52;11.80;;;6.40;;
55220;SDS011;41089;51.448;6.604;2023-07-08T19:52:52;8.67;;;5.80;;
55220;SDS011;41089;51.448;6.604;2023-07-08T19:58:53;12.00;;;6.55;;
55220;SDS011;41089;51.448;6.604;2023-07-08T20:04:54;9.15;;;6.47;;
55220;SDS011;41089;51.448;6.604;2023-07-08T20:10:55;8.65;;;5.72;;
55220;SDS011;41089;51.448;6.604;2023-07-08T20:16:56;9.38;;;6.60;;
55220;SDS011;41089;51.448;6.604;2023-07-08T20:22:56;9.30;;;6.35;;
55220;SDS011;41089;51.448;6.604;2023-07-08T20:28:57;11.70;;;6.10;;
55220;SDS011;41089;51.448;6.604;2023-07-08T20:34:58;9.85;;;6.22;;
55220;SDS011;41089;51.448;6.604;2023-07-08T20:40:59;7.43;;;6.30;;
55220;SDS011;41089;51.448;6.604;2023-07-08T20:46:59;9.63;;;5.53;;
55220;SDS011;41089;51.448;6.604;2023-07-08T20:53:00;12.25;;;5.75;;
55220;SDS011;41089;51.448;6.604;2023-07-08T20:59:01;8.57;;;5.78;;
55220;SDS011;41089;51.448;6.604;2023-07-08T21:05:01;9.85;;;5.90;;
55220;SDS011;41089;51.448;6.604;2023-07-08T21:11:02;9.20;;;5.32;;
55220;SDS011;41089;51.448;6.604;2023-07-08T21:17:24;8.15;;;5.82;;
55220;SDS011;41089;51.448;6.604;2023-07-08T21:23:28;8.77;;;5.38;;
55220;SDS011;41089;51.448;6.604;2023-07-08T21:29:30;6.57;;;5.00;;
55220;SDS011;41089;51.448;6.604;2023-07-08T21:35:30;10.70;;;6.47;;
55220;SDS011;41089;51.448;6.604;2023-07-08T21:41:31;13.52;;;5.53;;
55220;SDS011;41089;51.448;6.604;2023-07-08T21:47:31;8.63;;;5.38;;
55220;SDS011;41089;51.448;6.604;2023-07-08T21:53:35;9.27;;;4.87;;
55220;SDS011;41089;51.448;6.604;2023-07-08T21:59:36;6.50;;;4.80;;
55220;SDS011;41089;51.448;6.604;2023-07-08T22:05:38;6.10;;;5.28;;
55220;SDS011;41089;51.448;6.604;2023-07-08T22:11:39;7.82;;;5.03;;
55220;SDS011;41089;51.448;6.604;2023-07-08T22:17:39;6.90;;;5.20;;
55220;SDS011;41089;51.448;6.604;2023-07-08T22:23:40;5.47;;;4.60;;
55220;SDS011;41089;51.448;6.604;2023-07-08T22:29:40;7.80;;;4.90;;
55220;SDS011;41089;51.448;6.604;2023-07-08T22:35:41;7.90;;;5.40;;
55220;SDS011;41089;51.448;6.604;2023-07-08T22:47:45;7.53;;;4.82;;
55220;SDS011;41089;51.448;6.604;2023-07-08T22:53:47;5.97;;;4.90;;
55220;SDS011;41089;51.448;6.604;2023-07-08T22:59:47;7.40;;;5.00;;
55220;SDS011;41089;51.448;6.604;2023-07-08T23:05:49;6.20;;;5.27;;
55220;SDS011;41089;51.448;6.604;2023-07-08T23:11:51;7.38;;;5.53;;
55220;SDS011;41089;51.448;6.604;2023-07-08T23:17:52;7.33;;;5.40;;
55220;SDS011;41089;51.448;6.604;2023-07-08T23:23:54;8.27;;;5.50;;
55220;SDS011;41089;51.448;6.604;2023-07-08T23:29:54;6.22;;;5.30;;
55220;SDS011;41089;51.448;6.604;2023-07-08T23:35:55;8.20;;;5.03;;
55220;SDS011;41089;51.448;6.604;2023-07-08T23:41:56;9.30;;;5.70;;
55220;SDS011;41089;51.448;6.604;2023-07-08T23:47:58;7.25;;;6.07;;
55220;SDS011;41089;51.448;6.604;2023-07-08T23:53:59;6.07;;;5.30;;
